AirNav   Duncan Aviation - Near you to keep you flying
 
 867 users online  

2WN6 Cunningham Airport
Granton, Wisconsin, USA

GOING TO GRANTON?


FAA INFORMATION EFFECTIVE 26 JANUARY 2023

Location

FAA Identifier: 2WN6
Lat/Long: 44-31-46.8630N 090-25-09.4840W
44-31.781050N 090-25.158067W
44.5296842,-90.4193011
(estimated)
Elevation: 1089 ft. / 332 m (estimated)
Variation: 01E (1985)
From city: 3 miles S of GRANTON, WI
Time zone: UTC -6 (UTC -5 during Daylight Saving Time)
Zip code: 54436

Airport Operations

Airport use: Private use. Permission required prior to landing
Activation date: 02/1968
Control tower: no
ARTCC: MINNEAPOLIS CENTER
FSS: GREEN BAY FLIGHT SERVICE STATION
Attendance: IREG
Wind indicator: yes
Segmented circle: no

Airport Communications

WX ASOS at MFI (12 nm NE): 121.575 (715-384-3046)

Nearby radio navigation aids

NDB name  Hdg/Dist  Freq  Var  ID
MCCOY015/36.841200ECMY -.-. -- -.--

Airport Services

Airframe service: NONE
Powerplant service: NONE

Runway Information

Runway 4/22

Dimensions: 2500 x 60 ft. / 762 x 18 m
Surface: turf
RUNWAY 4  RUNWAY 22
Traffic pattern: leftleft
Obstructions: 40 ft. trees40 ft. trees

Airport Ownership and Management from official FAA records

Ownership: Privately-owned
Owner: JUSTIN T. SMITH
5683 HWY X
PITTSVILLE, WI 54466
Phone 715-884-2310

Airport Operational Statistics

Aircraft based on the field: 1
Single engine airplanes: 1
    

Additional Remarks

120' TWR SOUTH SIDE.
CLOSED WINTERS EXCEPT SKI EQPD ACFT.
FOR CD CTC MINNEAPOLIS ARTCC AT 651-463-5588.

Instrument Procedures

There are no published instrument procedures at 2WN6.

Some nearby airports with instrument procedures:

KVIQ - Neillsville Municipal Airport (4 nm NW)
KMFI - Marshfield Municipal Airport (12 nm NE)
KBCK - Black River Falls Area Airport (25 nm SW)
KISW - Alexander Field South Wood County Airport (27 nm E)
KDAF - Necedah Airport (33 nm SE)
 
Loc | Ops | Rwys | IFR | FBO | Links
Com | Nav | Svcs | Stats | Notes
Area around 2WN6 (Cunningham Airport)
 
Road maps at: MapQuest Bing Google
 
Aerial photo
WARNING: Photo may not be current or correct
Aerial photo of 2WN6 (Cunningham Airport)
Do you have a better or more recent aerial photo of Cunningham Airport that you would like to share? If so, please send us your photo.

 
Sectional chart

 
Airport distance calculator
Flying to Cunningham Airport? Find the distance to fly.

From to 2WN6

Sunrise and sunset
Times for 06-Feb-2023
 Local
(UTC-6)
 Zulu
(UTC)
Morning civil twilight06:4512:45
Sunrise07:1513:15
Sunset17:1623:16
Evening civil twilight17:4723:47

Current date and time
Zulu (UTC)  07-Feb-2023 04:35:44
Local (UTC-6)  06-Feb-2023 22:35:44
 
METAR
KMFI 
12nm NE 
070354Z AUTO 13005KT 5SM -RA BR OVC031 01/M01 A2963 RMK AO2 SLP051 P0006 I1000 T00061011
TAF
KCWA 
35nm NE 
070352Z 0704/0724 13011G20KT 3SM -FZRASN BR SCT013 OVC030 WS020/17050KT FM070500 18012G21KT 3SM -SHSN BR OVC009 WS020/20045KT FM070900 26012G20KT P6SM OVC006 FM071500 28014G23KT P6SM BKN013 FM071800 27012G22KT P6SM SCT018 BKN030 FM072200 27010KT P6SM SCT035
KVOK 
37nm S 
061700Z 0617/0723 13010G15KT 9999 FEW170 QNH2976INS BECMG 0702/0703 15012KT 9000 -SN OVC025 WS020/19050KT 620259 QNH2959INS BECMG 0705/0706 19010G15KT 9000 -RA OVC015 620159 QNH2959INS TEMPO 0706/0708 27015G25KT OVC008 620089 BECMG 0712/0713 27015G25KT 9999 NSW OVC015 620159 QNH2976INS BECMG 0716/0717 28015G25KT 9999 SCT015 OVC025 620259 QNH2993INS TX01/0705Z TNM08/0617Z LAST NO AMDS AFT 0622 NEXT 0709
KAUW 
42nm NE 
070349Z 0704/0724 13013G21KT 4SM -FZRASN BR SCT020 OVC028 WS020/17050KT FM070600 18012G21KT 3SM -SHSN BR OVC012 WS020/20045KT FM070900 26012G20KT P6SM OVC009 FM071500 28014G23KT P6SM BKN013 FM071800 27012G22KT P6SM SCT018 BKN030 FM072200 27010KT P6SM SCT035
NOTAMs
Click for the latest NOTAMs
NOTAMs are issued by the DoD/FAA and will open in a separate window not controlled by AirNav.

 

 
 

Would you like to see your business listed on this page?

 If your business provides an interesting product or service to pilots, flight crews, aircraft, or users of the Cunningham Airport, you should consider listing it here.  To start the listing process, click on the button below
 
Add a business
 

Other Pages about Cunningham Airport

Update a link
 
Copyright © AirNav, LLC. All rights reserved. Privacy Policy  Contact